Terminal Aerodrome Forecast
Issued by NWS

Home | Current Version | Previous Version | Graphics & Text | Print | Product List | Glossary On
Versions: 1 2 3 4 5 6 7 8 9 10 11 12 13 14 15 16 17 18
000
FTUS43 KGRB 281500 AAA
TAFRHI
TAF AMD
KRHI 281510Z 2815/2912 25010G16KT P6SM OVC013
      TEMPO 2816/2818 -RA
     FM281800 25013G23KT P6SM -SHRA BKN015 OVC035
     FM290300 26009G14KT P6SM -SHRASN BKN015 OVC030=

USA.gov is the U.S. government's official web portal to all federal, state and local government web resources and services.